Time;durP1;ratioP1;P1;durP2;ratioP2;P2;SDS_P1;SDS_P2;PMS_P1;PMS_P2;Temp;Humidity;BMP_temperature;BMP_pressure;BME280_temperature;BME280_humidity;BME280_pressure;Samples;Min_cycle;Max_cycle;Signal;HPM_P1;HPM_P2
2021/03/15 00:02:24;;;;;;;9.10;7.90;;;7.80;99.90;;;;;;5073676;28;20268;-69
2021/03/15 00:04:49;;;;;;;9.43;7.60;;;7.80;99.90;;;;;;5088671;28;20243;-68
2021/03/15 00:07:15;;;;;;;9.97;7.93;;;7.80;99.90;;;;;;5073684;28;20634;-68
2021/03/15 00:09:41;;;;;;;10.77;8.80;;;7.80;99.90;;;;;;5088563;28;20192;-69
2021/03/15 00:12:08;;;;;;;12.27;8.23;;;7.80;99.90;;;;;;5073725;28;20190;-68
2021/03/15 00:14:34;;;;;;;9.93;7.72;;;7.80;99.90;;;;;;5072894;28;20205;-68
2021/03/15 00:16:59;;;;;;;10.17;7.80;;;7.80;99.90;;;;;;5071867;28;20182;-68
2021/03/15 00:19:25;;;;;;;11.80;7.70;;;7.80;99.90;;;;;;5073629;28;20193;-68
2021/03/15 00:21:50;;;;;;;10.10;7.53;;;7.80;99.90;;;;;;5077054;28;20169;-68
2021/03/15 00:24:16;;;;;;;11.17;8.10;;;7.80;99.90;;;;;;5076553;28;20246;-67
2021/03/15 00:26:42;;;;;;;10.00;7.70;;;7.80;99.90;;;;;;5076939;28;20173;-68
2021/03/15 00:29:07;;;;;;;9.20;8.10;;;7.80;99.90;;;;;;5076541;28;20678;-68
2021/03/15 00:31:33;;;;;;;10.13;8.30;;;7.80;99.90;;;;;;5076857;28;20173;-68
2021/03/15 00:33:58;;;;;;;12.80;8.37;;;7.70;99.90;;;;;;5092042;28;20262;-68
2021/03/15 00:36:24;;;;;;;8.80;7.77;;;7.70;99.90;;;;;;5092143;28;20188;-69
2021/03/15 00:38:50;;;;;;;10.17;8.40;;;7.70;99.90;;;;;;5076194;28;20216;-68
2021/03/15 00:41:16;;;;;;;10.02;8.68;;;7.70;99.90;;;;;;5076341;28;20217;-68
2021/03/15 00:43:42;;;;;;;8.90;7.67;;;7.70;99.90;;;;;;5091926;28;20201;-69
2021/03/15 00:46:07;;;;;;;9.53;7.90;;;7.70;99.90;;;;;;5076490;28;20173;-67
2021/03/15 00:48:33;;;;;;;10.87;7.90;;;7.70;99.90;;;;;;5076196;28;20193;-69
2021/03/15 00:50:58;;;;;;;11.10;8.27;;;7.70;99.90;;;;;;5076101;28;20208;-67
2021/03/15 00:53:24;;;;;;;10.60;8.57;;;7.70;99.90;;;;;;5075994;28;20665;-69
2021/03/15 00:55:50;;;;;;;16.07;9.03;;;7.70;99.90;;;;;;5076160;28;20615;-67
2021/03/15 00:58:15;;;;;;;13.77;9.67;;;7.70;99.90;;;;;;5075863;28;20213;-69
2021/03/15 01:00:45;;;;;;;13.93;9.33;;;7.80;99.90;;;;;;5076037;28;20173;-68
2021/03/15 01:03:11;;;;;;;13.10;9.50;;;7.80;99.90;;;;;;5075837;28;20238;-69
2021/03/15 01:05:39;;;;;;;12.77;8.60;;;7.70;99.90;;;;;;5075794;28;20189;-67
2021/03/15 01:08:07;;;;;;;9.52;8.45;;;7.70;99.90;;;;;;5091348;28;20205;-67
2021/03/15 01:10:35;;;;;;;12.52;8.40;;;7.70;99.90;;;;;;5074499;28;20177;-67
2021/03/15 01:13:01;;;;;;;10.90;9.32;;;7.70;99.90;;;;;;5075743;28;20217;-69
2021/03/15 01:15:27;;;;;;;9.00;8.10;;;7.70;99.90;;;;;;5075791;28;20219;-67
2021/03/15 01:17:52;;;;;;;9.50;8.47;;;7.70;99.90;;;;;;5075495;28;20244;-67
2021/03/15 01:20:18;;;;;;;13.60;8.90;;;7.70;99.90;;;;;;5075545;28;20174;-68
2021/03/15 01:22:44;;;;;;;12.80;9.25;;;7.70;99.90;;;;;;5090995;28;20242;-68
2021/03/15 01:25:10;;;;;;;11.37;8.73;;;7.70;99.90;;;;;;5075569;28;20631;-68
2021/03/15 01:27:36;;;;;;;11.55;9.18;;;7.70;99.90;;;;;;5075644;28;20174;-67
2021/03/15 01:30:08;;;;;;;10.80;8.80;;;7.70;99.90;;;;;;5075320;28;20187;-68
2021/03/15 01:32:33;;;;;;;10.77;8.55;;;7.70;99.90;;;;;;5074469;28;20170;-67
2021/03/15 01:34:59;;;;;;;10.47;8.90;;;7.70;99.90;;;;;;5075351;28;20177;-68
2021/03/15 01:37:24;;;;;;;10.07;8.37;;;7.60;99.90;;;;;;5075675;28;20196;-68
2021/03/15 01:39:50;;;;;;;14.50;10.30;;;7.60;99.90;;;;;;5090740;28;20201;-68
2021/03/15 01:42:15;;;;;;;12.20;9.77;;;7.50;99.90;;;;;;5075292;28;20220;-67
2021/03/15 01:44:41;;;;;;;11.43;9.20;;;7.60;99.90;;;;;;5090716;28;20279;-68
2021/03/15 01:47:06;;;;;;;11.17;9.03;;;7.60;99.90;;;;;;5074055;28;20174;-67
2021/03/15 01:49:32;;;;;;;9.93;8.23;;;7.60;99.90;;;;;;5090447;28;20193;-67
2021/03/15 01:51:58;;;;;;;10.60;8.43;;;7.60;99.90;;;;;;5075342;28;20242;-68
2021/03/15 01:54:24;;;;;;;10.05;8.40;;;7.60;99.90;;;;;;5074872;28;20193;-68
2021/03/15 01:56:50;;;;;;;10.90;8.20;;;7.60;99.90;;;;;;5075237;28;20184;-67
2021/03/15 01:59:17;;;;;;;14.10;8.80;;;7.60;99.90;;;;;;5074734;28;20225;-67
2021/03/15 02:01:46;;;;;;;11.07;8.50;;;7.50;99.90;;;;;;5074699;28;20595;-67
2021/03/15 02:04:15;;;;;;;11.55;9.32;;;7.50;99.90;;;;;;5074801;28;20196;-68
2021/03/15 02:06:42;;;;;;;11.18;9.13;;;7.50;99.90;;;;;;5074941;28;20514;-69
2021/03/15 02:09:08;;;;;;;9.98;8.88;;;7.50;99.90;;;;;;5074545;28;20197;-67
2021/03/15 02:11:45;;;;;;;13.07;9.17;;;7.50;99.90;;;;;;5074893;28;20536;-67
2021/03/15 02:14:20;;;;;;;11.18;9.13;;;7.60;99.90;;;;;;5074530;28;20280;-69
2021/03/15 02:16:52;;;;;;;11.63;9.00;;;7.60;99.90;;;;;;5074832;28;20640;-67
2021/03/15 02:19:37;;;;;;;11.88;9.00;;;7.50;99.90;;;;;;5074271;28;20240;-68
2021/03/15 02:22:28;;;;;;;11.57;8.93;;;7.50;99.90;;;;;;5090184;28;20200;-69
2021/03/15 02:25:16;;;;;;;11.00;8.90;;;7.50;99.90;;;;;;5074308;28;20532;-67
2021/03/15 02:28:12;;;;;;;11.40;8.57;;;7.40;99.90;;;;;;5074329;28;20702;-68
2021/03/15 02:30:48;;;;;;;14.50;9.40;;;7.40;99.90;;;;;;5089988;28;20658;-67
2021/03/15 02:33:32;;;;;;;11.13;9.05;;;7.30;99.90;;;;;;5074149;28;20346;-69
2021/03/15 02:36:01;;;;;;;10.00;9.02;;;7.20;99.90;;;;;;5074307;28;20180;-67
2021/03/15 02:38:39;;;;;;;11.13;8.18;;;7.20;99.90;;;;;;5073951;28;20641;-67
2021/03/15 02:41:05;;;;;;;13.32;9.98;;;7.20;99.90;;;;;;5073799;28;20183;-67
2021/03/15 02:44:05;;;;;;;11.43;9.18;;;7.20;99.90;;;;;;5072583;28;20573;-68
2021/03/15 02:46:32;;;;;;;12.00;9.52;;;7.10;99.90;;;;;;5067593;28;20189;-68
2021/03/15 02:49:19;;;;;;;10.93;9.05;;;7.10;99.90;;;;;;5073887;28;20201;-68
2021/03/15 02:51:48;;;;;;;10.48;9.35;;;7.00;99.90;;;;;;5089701;28;20635;-67
2021/03/15 02:54:15;;;;;;;13.27;9.27;;;7.00;99.90;;;;;;5073783;28;20197;-69
2021/03/15 02:56:44;;;;;;;13.00;9.73;;;7.00;99.90;;;;;;5074071;28;20272;-68
2021/03/15 02:59:11;;;;;;;11.55;9.15;;;7.00;99.90;;;;;;5073671;28;20582;-67
2021/03/15 03:01:39;;;;;;;10.00;9.00;;;6.90;99.90;;;;;;5074147;28;20641;-68
2021/03/15 03:04:08;;;;;;;10.27;7.85;;;6.90;99.90;;;;;;5073680;28;20189;-68
2021/03/15 03:06:36;;;;;;;9.30;8.05;;;6.80;99.90;;;;;;5074182;28;20566;-67
2021/03/15 03:09:05;;;;;;;12.98;9.00;;;6.80;99.90;;;;;;5072365;28;20612;-68
2021/03/15 03:11:31;;;;;;;10.57;9.45;;;6.80;99.90;;;;;;5074043;28;20178;-69
2021/03/15 03:13:59;;;;;;;10.10;8.43;;;6.80;99.90;;;;;;5073658;28;20711;-67
2021/03/15 03:16:30;;;;;;;15.13;8.93;;;6.80;99.90;;;;;;5089365;28;20267;-67
2021/03/15 03:18:57;;;;;;;12.57;9.55;;;6.90;99.90;;;;;;5073575;28;20213;-68
2021/03/15 03:21:25;;;;;;;15.48;10.65;;;7.10;99.90;;;;;;5073908;28;20506;-68
2021/03/15 03:23:54;;;;;;;11.93;8.85;;;7.20;99.90;;;;;;5073456;28;20204;-69
2021/03/15 03:26:30;;;;;;;14.63;9.80;;;7.30;99.90;;;;;;5072375;28;20184;-68
2021/03/15 03:28:58;;;;;;;13.40;10.18;;;7.50;99.90;;;;;;5089035;28;20215;-69
2021/03/15 03:31:25;;;;;;;12.73;10.52;;;7.60;99.90;;;;;;5073709;28;20180;-67
2021/03/15 03:33:52;;;;;;;15.98;11.25;;;7.70;99.90;;;;;;5088942;28;20208;-68
2021/03/15 03:36:18;;;;;;;12.70;9.20;;;7.60;99.90;;;;;;5072207;28;20174;-67
2021/03/15 03:38:44;;;;;;;16.25;12.30;;;7.50;99.90;;;;;;5088728;28;20273;-68
2021/03/15 03:41:11;;;;;;;16.20;12.23;;;7.40;99.90;;;;;;5088858;28;20256;-68
2021/03/15 03:43:37;;;;;;;17.20;12.35;;;7.60;99.90;;;;;;5073427;28;20681;-69
2021/03/15 03:46:04;;;;;;;15.32;12.10;;;7.70;99.90;;;;;;5088919;28;20180;-68
2021/03/15 03:48:30;;;;;;;17.38;10.52;;;7.40;99.90;;;;;;5073230;28;20196;-68
2021/03/15 03:50:56;;;;;;;19.63;13.07;;;7.50;99.90;;;;;;5073682;28;20173;-69
2021/03/15 03:53:29;;;;;;;18.43;13.80;;;7.50;99.90;;;;;;5073349;28;20246;-67
2021/03/15 03:56:10;;;;;;;20.85;13.73;;;7.60;99.90;;;;;;5076630;28;20418;-68
2021/03/15 03:58:43;;;;;;;15.40;12.48;;;7.20;99.90;;;;;;5077114;28;20216;-69
2021/03/15 04:01:12;;;;;;;20.83;13.77;;;7.20;99.90;;;;;;5077508;28;20256;-67
2021/03/15 04:03:40;;;;;;;17.52;11.70;;;7.20;99.90;;;;;;5077004;28;20189;-67
2021/03/15 04:06:10;;;;;;;17.15;12.05;;;7.40;99.90;;;;;;5077335;28;20569;-68
2021/03/15 04:08:45;;;;;;;15.20;11.55;;;7.60;99.90;;;;;;5092900;28;20243;-67
2021/03/15 04:11:12;;;;;;;19.55;14.15;;;7.70;99.90;;;;;;5077281;28;20619;-68
2021/03/15 04:13:39;;;;;;;15.50;10.75;;;7.80;99.90;;;;;;5092467;28;20283;-67
2021/03/15 04:16:07;;;;;;;16.08;12.90;;;7.70;99.90;;;;;;5077117;28;20203;-68
2021/03/15 04:18:36;;;;;;;12.27;8.80;;;8.50;99.90;;;;;;5092252;28;20592;-68
2021/03/15 04:21:03;;;;;;;16.20;11.85;;;8.50;99.90;;;;;;5092402;28;20192;-68
2021/03/15 04:23:34;;;;;;;14.27;11.18;;;8.30;99.90;;;;;;5076678;28;20200;-68
2021/03/15 04:26:01;;;;;;;15.43;11.98;;;8.50;99.90;;;;;;5077110;28;20177;-67
2021/03/15 04:28:30;;;;;;;17.83;12.82;;;8.20;99.90;;;;;;5076597;28;20196;-68
2021/03/15 04:30:56;;;;;;;16.17;11.98;;;8.00;99.90;;;;;;5092263;28;20275;-67
2021/03/15 04:33:23;;;;;;;14.68;11.80;;;8.30;99.90;;;;;;5076456;28;20331;-68
2021/03/15 04:35:50;;;;;;;16.42;7.85;;;8.20;99.90;;;;;;5092104;28;20635;-69
2021/03/15 04:38:16;;;;;;;20.13;11.73;;;8.10;99.90;;;;;;5076307;28;20611;-67
2021/03/15 04:40:46;;;;;;;15.82;12.82;;;8.10;99.90;;;;;;5075166;28;20184;-68
2021/03/15 04:43:12;;;;;;;14.82;11.23;;;7.80;99.90;;;;;;5076401;28;20243;-69
2021/03/15 04:45:45;;;;;;;16.42;11.70;;;8.20;99.90;;;;;;5076287;28;20185;-67
2021/03/15 04:48:15;;;;;;;14.30;11.57;;;8.00;99.90;;;;;;5076245;28;20189;-69
2021/03/15 04:50:43;;;;;;;14.02;11.52;;;8.20;99.90;;;;;;5076218;28;20177;-67
2021/03/15 04:53:10;;;;;;;16.25;13.02;;;7.90;99.90;;;;;;5091674;28;20204;-67
2021/03/15 04:55:35;;;;;;;14.60;9.20;;;7.80;99.90;;;;;;5076213;28;20203;-68
2021/03/15 04:58:05;;;;;;;16.30;9.70;;;8.10;99.90;;;;;;5076054;28;20216;-69
2021/03/15 05:00:32;;;;;;;15.20;11.00;;;8.40;99.90;;;;;;5076314;28;20215;-67
2021/03/15 05:02:58;;;;;;;15.32;11.43;;;8.40;99.90;;;;;;5075900;28;20197;-69
2021/03/15 05:05:25;;;;;;;17.08;13.15;;;7.80;99.90;;;;;;5075687;28;20173;-68
2021/03/15 05:07:52;;;;;;;17.02;11.43;;;7.50;99.90;;;;;;5090632;28;20584;-69
2021/03/15 05:10:18;;;;;;;16.48;12.88;;;7.00;99.90;;;;;;5075965;28;20165;-69
2021/03/15 05:12:45;;;;;;;14.13;11.45;;;7.00;99.90;;;;;;5075709;28;20181;-67
2021/03/15 05:15:12;;;;;;;18.38;13.05;;;7.00;99.90;;;;;;5091411;28;20226;-67
2021/03/15 05:17:40;;;;;;;15.45;12.38;;;7.10;99.90;;;;;;5091083;28;20209;-67
2021/03/15 05:20:08;;;;;;;15.25;11.52;;;7.20;99.90;;;;;;5091300;28;20168;-69
2021/03/15 05:22:36;;;;;;;17.33;12.05;;;7.30;99.90;;;;;;5075475;28;20181;-68
2021/03/15 05:25:05;;;;;;;15.23;11.63;;;7.20;99.90;;;;;;5075596;28;20169;-67
2021/03/15 05:27:31;;;;;;;14.80;11.23;;;7.50;99.90;;;;;;5075251;28;20177;-69
2021/03/15 05:30:03;;;;;;;11.80;10.10;;;7.80;99.90;;;;;;5074170;28;20219;-68
2021/03/15 05:32:32;;;;;;;12.65;9.93;;;7.70;99.90;;;;;;5075376;28;20393;-68
2021/03/15 05:35:00;;;;;;;14.98;10.45;;;7.60;99.90;;;;;;5075341;28;20721;-67
2021/03/15 05:37:27;;;;;;;13.07;10.32;;;7.70;99.90;;;;;;5075239;28;20209;-67
2021/03/15 05:39:53;;;;;;;13.55;10.90;;;7.40;99.90;;;;;;5075213;28;20276;-68
2021/03/15 05:42:21;;;;;;;13.33;9.50;;;7.20;99.90;;;;;;5075297;28;20666;-67
2021/03/15 05:45:05;;;;;;;11.10;8.23;;;7.70;99.90;;;;;;5075069;28;20201;-67
2021/03/15 05:47:52;;;;;;;11.82;9.30;;;7.60;99.90;;;;;;5075059;28;20659;-67
2021/03/15 05:50:33;;;;;;;13.38;10.80;;;7.20;99.90;;;;;;5090736;28;20549;-67
2021/03/15 05:53:26;;;;;;;10.38;8.23;;;7.50;99.90;;;;;;5075081;28;20199;-69
2021/03/15 05:56:09;;;;;;;10.75;8.35;;;7.00;99.90;;;;;;5075112;28;20184;-69
2021/03/15 05:58:54;;;;;;;15.55;9.75;;;7.30;99.90;;;;;;5074719;28;20225;-68
2021/03/15 06:01:19;;;;;;;14.35;10.63;;;7.20;99.90;;;;;;5075279;28;20238;-68
2021/03/15 06:03:57;;;;;;;12.00;9.37;;;7.10;99.90;;;;;;5074688;28;20197;-67
2021/03/15 06:06:27;;;;;;;17.02;11.82;;;7.10;99.90;;;;;;5090459;28;20546;-68
2021/03/15 06:09:02;;;;;;;13.68;10.00;;;7.00;99.90;;;;;;5074679;28;20205;-67
2021/03/15 06:11:36;;;;;;;15.45;11.48;;;6.70;99.90;;;;;;5075037;28;20728;-67
2021/03/15 06:14:02;;;;;;;13.88;10.38;;;6.60;99.90;;;;;;5090630;28;20266;-67
2021/03/15 06:16:29;;;;;;;13.43;10.10;;;6.90;99.90;;;;;;5074482;28;20638;-67
2021/03/15 06:18:59;;;;;;;13.20;10.52;;;6.90;99.90;;;;;;5074002;28;20870;-69
2021/03/15 06:21:25;;;;;;;14.10;10.45;;;6.60;99.90;;;;;;5074665;28;20264;-68
2021/03/15 06:23:54;;;;;;;14.43;11.13;;;6.60;99.90;;;;;;5072957;28;20224;-69
2021/03/15 06:26:20;;;;;;;12.32;10.00;;;6.60;99.90;;;;;;5074647;28;20252;-67
2021/03/15 06:28:45;;;;;;;12.52;9.30;;;6.50;99.90;;;;;;5089798;28;20206;-68
2021/03/15 06:31:15;;;;;;;12.90;10.10;;;6.70;99.90;;;;;;5074494;28;20165;-68
2021/03/15 06:33:43;;;;;;;14.43;8.90;;;6.90;99.90;;;;;;5074098;28;20189;-69
2021/03/15 06:36:11;;;;;;;14.48;8.13;;;6.90;99.90;;;;;;5074485;28;20210;-68
2021/03/15 06:38:40;;;;;;;12.50;10.10;;;6.70;99.90;;;;;;5073968;28;20220;-68
2021/03/15 06:41:06;;;;;;;11.32;9.00;;;6.80;99.90;;;;;;5073970;28;20184;-67
2021/03/15 06:43:32;;;;;;;12.50;9.37;;;6.80;99.90;;;;;;5073991;28;20197;-68
2021/03/15 06:45:57;;;;;;;12.40;10.00;;;6.80;99.90;;;;;;5074166;28;20181;-68
2021/03/15 06:48:24;;;;;;;13.33;10.43;;;6.50;99.90;;;;;;5073870;28;20193;-68
2021/03/15 06:50:51;;;;;;;12.70;9.80;;;6.40;99.90;;;;;;5074048;28;20169;-67
2021/03/15 06:53:17;;;;;;;12.52;9.90;;;6.30;99.90;;;;;;5073940;28;20193;-68
2021/03/15 06:55:45;;;;;;;11.27;9.40;;;6.40;99.90;;;;;;5074010;28;20611;-68
2021/03/15 06:58:23;;;;;;;17.23;11.00;;;6.30;99.90;;;;;;5073707;28;20278;-67
2021/03/15 07:01:22;;;;;;;11.35;9.45;;;6.30;99.90;;;;;;5073915;28;20209;-67
2021/03/15 07:03:50;;;;;;;14.50;11.68;;;6.30;99.90;;;;;;5069994;28;20580;-68
2021/03/15 07:06:19;;;;;;;12.60;10.23;;;6.30;99.90;;;;;;5089453;28;20260;-68
2021/03/15 07:08:48;;;;;;;12.82;10.18;;;6.40;99.90;;;;;;5072373;28;20201;-68
2021/03/15 07:11:28;;;;;;;14.73;10.00;;;6.30;99.90;;;;;;5073983;28;20616;-67
2021/03/15 07:13:54;;;;;;;11.52;9.85;;;6.50;99.90;;;;;;5089194;28;20199;-68
2021/03/15 07:16:38;;;;;;;12.47;9.90;;;6.50;99.90;;;;;;5089248;28;20181;-68
2021/03/15 07:19:22;;;;;;;20.80;11.52;;;6.60;99.90;;;;;;5073627;28;20717;-67
2021/03/15 07:21:48;;;;;;;14.35;10.60;;;6.40;99.90;;;;;;5073953;28;20191;-67
2021/03/15 07:24:13;;;;;;;11.37;9.70;;;6.50;99.90;;;;;;5089018;28;20658;-67
2021/03/15 07:26:44;;;;;;;11.70;9.27;;;6.50;99.90;;;;;;5073904;28;20683;-67
2021/03/15 07:29:18;;;;;;;10.73;8.35;;;6.50;99.90;;;;;;5073865;28;20564;-68
2021/03/15 07:31:45;;;;;;;12.40;9.55;;;6.80;99.90;;;;;;5078096;28;20646;-68
2021/03/15 07:34:14;;;;;;;9.27;8.10;;;6.90;99.90;;;;;;5077610;28;20193;-70
2021/03/15 07:37:02;;;;;;;11.48;8.13;;;6.90;99.90;;;;;;5077403;28;20680;-68
2021/03/15 07:39:29;;;;;;;10.07;8.70;;;7.20;99.90;;;;;;5077423;28;20239;-68
2021/03/15 07:41:57;;;;;;;16.50;10.30;;;7.10;99.90;;;;;;5077516;28;20235;-68
2021/03/15 07:44:26;;;;;;;10.95;9.70;;;6.90;99.90;;;;;;5077467;28;20201;-67
2021/03/15 07:46:54;;;;;;;11.75;10.30;;;6.90;99.90;;;;;;5077756;28;20184;-68
2021/03/15 07:49:27;;;;;;;12.75;10.10;;;6.90;99.90;;;;;;5077319;28;20197;-67
2021/03/15 07:52:05;;;;;;;13.63;10.35;;;6.90;99.90;;;;;;5077657;28;20180;-68
2021/03/15 07:54:36;;;;;;;16.63;10.10;;;7.00;99.90;;;;;;5077263;28;20196;-67
2021/03/15 07:57:16;;;;;;;14.32;10.65;;;7.20;99.90;;;;;;5077674;28;20169;-68
2021/03/15 07:59:43;;;;;;;15.32;11.88;;;7.10;99.90;;;;;;5077190;28;20212;-68
2021/03/15 08:02:20;;;;;;;11.02;9.88;;;7.10;99.90;;;;;;5077738;28;20181;-67
2021/03/15 08:04:46;;;;;;;14.63;11.52;;;6.90;99.90;;;;;;5077050;28;20235;-68
2021/03/15 08:07:13;;;;;;;13.33;11.63;;;7.00;99.90;;;;;;5077574;28;20690;-68
2021/03/15 08:09:41;;;;;;;13.40;11.85;;;7.10;99.90;;;;;;5076865;28;20433;-67
2021/03/15 08:12:08;;;;;;;12.43;10.43;;;7.20;99.90;;;;;;5077390;28;20231;-68
2021/03/15 08:14:42;;;;;;;13.60;11.52;;;7.30;99.90;;;;;;5092439;28;20233;-69
2021/03/15 08:17:09;;;;;;;12.52;10.93;;;7.30;99.90;;;;;;5077396;28;20199;-69
2021/03/15 08:19:37;;;;;;;14.30;12.68;;;7.40;99.90;;;;;;5076675;28;20292;-67
2021/03/15 08:22:04;;;;;;;15.10;13.60;;;7.50;99.90;;;;;;5077053;28;20174;-69
2021/03/15 08:24:35;;;;;;;14.52;13.02;;;7.40;99.90;;;;;;5076551;28;20333;-68
2021/03/15 08:27:02;;;;;;;14.43;12.38;;;7.50;99.90;;;;;;5077136;28;20623;-68
2021/03/15 08:29:30;;;;;;;14.13;12.82;;;7.50;99.90;;;;;;5076469;28;20202;-67
2021/03/15 08:31:57;;;;;;;13.02;11.63;;;7.60;99.90;;;;;;5092324;28;20227;-68
2021/03/15 08:34:24;;;;;;;14.55;12.68;;;7.80;99.90;;;;;;5076455;28;20197;-67
2021/03/15 08:36:50;;;;;;;13.10;11.75;;;7.80;99.90;;;;;;5076790;28;20188;-68
2021/03/15 08:39:27;;;;;;;13.93;12.50;;;7.80;99.90;;;;;;5076311;28;20717;-67
2021/03/15 08:42:08;;;;;;;13.00;11.02;;;8.20;99.90;;;;;;5076035;28;20225;-68
2021/03/15 08:44:42;;;;;;;12.48;11.13;;;8.20;99.90;;;;;;5076230;28;20283;-68
2021/03/15 08:47:09;;;;;;;13.45;12.02;;;8.40;99.90;;;;;;5076954;28;20212;-67
2021/03/15 08:49:37;;;;;;;12.93;11.60;;;8.30;99.90;;;;;;5076138;28;20211;-67
2021/03/15 08:52:04;;;;;;;11.88;10.65;;;8.50;99.90;;;;;;5076193;28;20180;-68
2021/03/15 08:54:42;;;;;;;14.23;12.73;;;9.00;99.90;;;;;;5091383;28;20284;-67
2021/03/15 08:57:34;;;;;;;11.90;10.18;;;8.90;99.90;;;;;;5076541;28;20196;-68
2021/03/15 09:00:20;;;;;;;10.60;9.35;;;9.10;99.90;;;;;;5091524;28;20185;-68
2021/03/15 09:02:48;;;;;;;11.45;10.35;;;9.30;99.90;;;;;;5071773;28;20204;-67
2021/03/15 09:05:26;;;;;;;15.57;10.25;;;8.90;99.90;;;;;;5076639;28;20177;-68
2021/03/15 09:07:55;;;;;;;11.70;10.48;;;8.90;99.90;;;;;;5075680;28;20629;-68
2021/03/15 09:10:24;;;;;;;11.43;10.23;;;8.80;99.90;;;;;;5075686;28;20235;-69
2021/03/15 09:13:20;;;;;;;9.45;8.18;;;9.10;99.90;;;;;;5075651;28;20545;-68
2021/03/15 09:15:58;;;;;;;11.05;9.90;;;9.30;99.90;;;;;;5075767;28;20183;-68
2021/03/15 09:18:47;;;;;;;10.55;8.98;;;9.30;99.90;;;;;;5075483;28;20685;-68
2021/03/15 09:21:37;;;;;;;10.57;9.52;;;9.40;99.90;;;;;;5076088;28;20519;-68
2021/03/15 09:24:38;;;;;;;11.00;9.65;;;9.90;99.90;;;;;;5065286;28;20205;-67
2021/03/15 09:27:09;;;;;;;11.18;8.95;;;9.80;99.90;;;;;;5076027;28;20176;-69
2021/03/15 09:29:36;;;;;;;11.50;9.95;;;10.00;99.90;;;;;;5075412;28;20241;-69
2021/03/15 09:32:03;;;;;;;11.27;10.30;;;10.20;99.90;;;;;;5075878;28;20176;-67
2021/03/15 09:34:29;;;;;;;9.75;8.75;;;9.70;99.90;;;;;;5075301;28;20283;-69
2021/03/15 09:36:56;;;;;;;10.30;8.98;;;10.20;99.90;;;;;;5074271;28;20177;-67
2021/03/15 09:39:24;;;;;;;10.38;9.27;;;10.50;99.90;;;;;;5075220;28;20631;-67
2021/03/15 09:41:50;;;;;;;9.57;8.60;;;10.20;99.90;;;;;;5075244;28;20221;-68
2021/03/15 09:44:25;;;;;;;9.93;8.88;;;10.40;99.90;;;;;;5075239;28;20193;-69
2021/03/15 09:46:54;;;;;;;10.90;9.80;;;10.50;99.90;;;;;;5075095;28;20260;-68
2021/03/15 09:49:43;;;;;;;11.95;9.00;;;10.30;99.90;;;;;;5075069;28;20200;-67
2021/03/15 09:52:23;;;;;;;11.38;10.13;;;10.70;99.90;;;;;;5074957;28;20184;-68
2021/03/15 09:54:56;;;;;;;10.80;9.70;;;10.80;99.90;;;;;;5074948;28;20185;-68
2021/03/15 09:57:23;;;;;;;11.73;9.57;;;10.90;99.90;;;;;;5075371;28;20690;-68
2021/03/15 09:59:49;;;;;;;10.27;9.20;;;10.80;99.90;;;;;;5073486;28;20213;-68
2021/03/15 10:02:26;;;;;;;9.35;8.35;;;10.70;99.90;;;;;;5074950;28;20227;-68
2021/03/15 10:04:51;;;;;;;15.23;10.60;;;11.10;99.90;;;;;;5074725;28;20307;-69
2021/03/15 10:07:17;;;;;;;10.13;9.17;;;11.50;99.90;;;;;;5075199;28;20173;-68
2021/03/15 10:09:43;;;;;;;9.53;8.43;;;11.30;99.90;;;;;;5074559;28;20201;-68
2021/03/15 10:12:14;;;;;;;10.65;8.90;;;11.40;99.90;;;;;;5075122;28;20517;-68
2021/03/15 10:14:40;;;;;;;9.20;8.30;;;11.40;99.90;;;;;;5074480;28;20246;-68
2021/03/15 10:17:06;;;;;;;10.80;9.20;;;11.60;99.90;;;;;;5074517;28;20173;-68
2021/03/15 10:19:33;;;;;;;10.50;9.47;;;11.30;99.90;;;;;;5074368;28;20213;-68
2021/03/15 10:22:14;;;;;;;9.38;8.48;;;11.00;99.90;;;;;;5074832;28;20467;-68
2021/03/15 10:24:40;;;;;;;11.38;10.10;;;11.00;99.90;;;;;;5074425;28;20192;-68
2021/03/15 10:27:08;;;;;;;10.52;9.45;;;10.90;99.90;;;;;;5074916;28;20173;-68
2021/03/15 10:29:35;;;;;;;10.52;9.32;;;10.70;99.90;;;;;;5072956;28;20204;-68
2021/03/15 10:32:06;;;;;;;10.60;9.35;;;10.60;99.90;;;;;;5074692;28;20165;-68
2021/03/15 10:34:31;;;;;;;12.23;10.18;;;10.90;99.90;;;;;;5074109;28;20285;-69
2021/03/15 10:36:58;;;;;;;10.87;9.47;;;11.10;99.90;;;;;;5073120;28;20248;-68
2021/03/15 10:39:25;;;;;;;13.60;10.27;;;10.60;99.90;;;;;;5072721;28;20224;-68
2021/03/15 10:41:52;;;;;;;13.10;11.43;;;10.50;99.90;;;;;;5074127;28;20253;-68
2021/03/15 10:44:19;;;;;;;13.15;11.68;;;10.40;99.90;;;;;;5073998;28;20193;-69
2021/03/15 10:46:53;;;;;;;10.38;9.32;;;10.40;99.90;;;;;;5074293;28;20179;-69
2021/03/15 10:49:24;;;;;;;11.40;10.18;;;10.60;99.90;;;;;;5073934;28;20207;-68
2021/03/15 10:51:52;;;;;;;11.07;9.98;;;10.50;99.90;;;;;;5072826;28;20654;-67
2021/03/15 10:54:37;;;;;;;12.15;10.85;;;10.60;99.90;;;;;;5072589;28;20280;-69
2021/03/15 10:57:18;;;;;;;10.68;9.57;;;10.50;99.90;;;;;;5072738;28;20665;-68
2021/03/15 10:59:46;;;;;;;10.98;9.93;;;10.40;99.90;;;;;;5072631;28;20208;-68
2021/03/15 11:02:27;;;;;;;11.60;10.50;;;10.50;99.90;;;;;;5074412;28;20173;-68
2021/03/15 11:04:55;;;;;;;11.60;10.40;;;10.90;99.90;;;;;;5073837;28;20205;-69
2021/03/15 11:07:29;;;;;;;11.65;10.02;;;10.70;99.90;;;;;;5072953;28;20196;-68
2021/03/15 11:10:06;;;;;;;11.70;10.60;;;10.70;99.90;;;;;;5072453;28;20189;-67
2021/03/15 11:12:35;;;;;;;12.57;11.25;;;10.60;99.90;;;;;;5073728;28;20613;-68
2021/03/15 11:15:16;;;;;;;13.07;11.88;;;10.50;99.90;;;;;;5072346;28;20169;-69
2021/03/15 11:17:56;;;;;;;13.57;12.18;;;10.90;99.90;;;;;;5073524;28;20209;-68
2021/03/15 11:20:37;;;;;;;17.00;11.63;;;11.00;99.90;;;;;;5073685;28;20201;-68
2021/03/15 11:23:03;;;;;;;12.77;11.35;;;11.00;99.90;;;;;;5073620;28;20192;-68
2021/03/15 11:25:30;;;;;;;12.97;10.40;;;11.10;99.90;;;;;;5073597;28;20180;-69
2021/03/15 11:28:05;;;;;;;11.65;10.40;;;11.20;99.90;;;;;;5073510;28;20642;-68
2021/03/15 11:30:31;;;;;;;13.27;11.98;;;11.20;99.90;;;;;;5073693;28;20649;-68
2021/03/15 11:33:01;;;;;;;13.13;11.80;;;11.10;99.90;;;;;;5073461;28;20193;-68
2021/03/15 11:35:27;;;;;;;13.00;11.05;;;11.00;99.90;;;;;;5073502;28;20649;-67
2021/03/15 11:37:56;;;;;;;12.63;11.43;;;11.00;99.90;;;;;;5073336;28;20239;-70
2021/03/15 11:40:33;;;;;;;11.52;10.40;;;10.90;99.90;;;;;;5073487;28;20181;-68
2021/03/15 11:42:59;;;;;;;11.48;10.40;;;11.20;99.90;;;;;;5073146;28;20323;-68
2021/03/15 11:45:26;;;;;;;11.73;10.52;;;11.30;99.90;;;;;;5072119;28;20188;-67
2021/03/15 11:47:53;;;;;;;10.43;9.40;;;11.30;99.90;;;;;;5073614;28;20305;-68
2021/03/15 11:50:19;;;;;;;10.70;9.70;;;11.10;99.90;;;;;;5073401;28;20169;-68
2021/03/15 11:52:44;;;;;;;10.23;9.13;;;11.10;99.90;;;;;;5072011;28;20184;-68
2021/03/15 11:55:11;;;;;;;11.70;10.50;;;11.30;99.90;;;;;;5073255;28;20406;-69
2021/03/15 11:57:37;;;;;;;9.55;8.55;;;11.00;99.90;;;;;;5073204;28;20197;-69
2021/03/15 12:00:06;;;;;;;8.65;7.63;;;11.00;99.90;;;;;;5071918;28;20188;-68
2021/03/15 12:02:31;;;;;;;10.35;9.23;;;11.50;99.90;;;;;;5073001;28;20274;-68
2021/03/15 12:04:57;;;;;;;9.53;8.63;;;11.50;99.90;;;;;;5073275;28;20201;-68
2021/03/15 12:07:23;;;;;;;9.90;8.60;;;11.40;99.90;;;;;;5071819;28;20430;-68
2021/03/15 12:09:49;;;;;;;9.47;8.53;;;11.30;99.90;;;;;;5073051;28;20626;-68
2021/03/15 12:12:14;;;;;;;9.93;8.77;;;11.20;99.90;;;;;;5072162;28;20433;-68
2021/03/15 12:14:40;;;;;;;9.10;8.20;;;11.50;99.90;;;;;;5071775;28;20430;-67
2021/03/15 12:17:06;;;;;;;9.30;8.40;;;11.80;99.90;;;;;;5075339;28;20183;-68
2021/03/15 12:19:31;;;;;;;11.97;8.70;;;11.80;99.90;;;;;;5076719;28;20246;-69
2021/03/15 12:21:57;;;;;;;10.07;8.77;;;12.30;99.90;;;;;;5077276;28;20170;-67
2021/03/15 12:24:22;;;;;;;9.33;8.27;;;12.20;99.90;;;;;;5076735;28;20201;-70
2021/03/15 12:26:48;;;;;;;9.97;8.80;;;12.40;99.90;;;;;;5077022;28;20204;-67
2021/03/15 12:29:13;;;;;;;9.37;8.40;;;12.20;99.90;;;;;;5076603;28;20200;-69
2021/03/15 12:31:39;;;;;;;8.13;7.40;;;11.90;99.90;;;;;;5076490;28;20257;-68
2021/03/15 12:34:05;;;;;;;8.23;7.43;;;12.10;99.90;;;;;;5076543;28;20197;-68
2021/03/15 12:36:30;;;;;;;10.23;7.67;;;12.50;99.90;;;;;;5076828;28;20221;-68
2021/03/15 12:38:56;;;;;;;9.83;6.57;;;12.50;99.90;;;;;;5076382;28;20247;-69
2021/03/15 12:41:22;;;;;;;9.60;7.30;;;12.60;99.90;;;;;;5076454;28;20675;-68
2021/03/15 12:43:47;;;;;;;7.90;6.90;;;12.70;99.90;;;;;;5075723;28;20474;-67
2021/03/15 12:46:18;;;;;;;7.17;6.47;;;12.50;99.90;;;;;;5074513;28;20712;-68
2021/03/15 12:48:47;;;;;;;8.85;7.90;;;12.60;99.90;;;;;;5073996;28;20200;-68
2021/03/15 12:51:13;;;;;;;8.30;7.50;;;12.90;99.90;;;;;;5074260;28;20169;-68
2021/03/15 12:53:39;;;;;;;8.00;7.20;;;12.70;99.90;;;;;;5073978;28;20200;-68
2021/03/15 12:56:06;;;;;;;8.02;6.68;;;12.50;99.90;;;;;;5072777;28;20592;-68